createdAt,value
2022-12-19T00:01:58.144Z,26.33
2022-12-19T00:12:02.642Z,23.00
2022-12-19T00:17:04.685Z,23.62
2022-12-19T00:22:11.128Z,25.47
2022-12-19T00:27:13.602Z,22.27
2022-12-19T00:32:15.621Z,24.25
2022-12-19T00:37:18.740Z,22.33
2022-12-19T00:42:20.797Z,22.67
2022-12-19T00:47:23.689Z,23.33
2022-12-19T00:52:25.740Z,23.08
2022-12-19T00:57:31.994Z,23.03
2022-12-19T01:02:34.246Z,22.55
2022-12-19T01:07:37.525Z,23.47
2022-12-19T01:12:48.378Z,23.27
2022-12-19T01:17:50.698Z,25.60
2022-12-19T01:22:53.406Z,23.97
2022-12-19T01:27:56.183Z,24.77
2022-12-19T01:33:00.107Z,25.60
2022-12-19T01:38:08.481Z,23.53
2022-12-19T01:43:15.711Z,23.20
2022-12-19T01:48:20.088Z,24.63
2022-12-19T01:53:25.736Z,23.97
2022-12-19T01:58:27.867Z,23.20
2022-12-19T02:03:33.437Z,25.70
2022-12-19T02:08:36.449Z,22.57
2022-12-19T02:13:39.367Z,21.70
2022-12-19T02:18:43.545Z,24.57
2022-12-19T02:29:15.914Z,22.53
2022-12-19T02:34:44.250Z,24.20
2022-12-19T02:40:15.219Z,22.73
2022-12-19T02:45:28.857Z,24.47
2022-12-19T02:50:43.764Z,24.10
2022-12-19T02:56:19.233Z,23.47
2022-12-19T03:01:35.751Z,23.20
2022-12-19T03:06:50.481Z,22.13
2022-12-19T03:12:01.538Z,24.97
2022-12-19T03:17:08.460Z,27.10
2022-12-19T03:22:10.823Z,23.67
2022-12-19T03:27:33.222Z,23.87
2022-12-19T03:32:38.565Z,24.73
2022-12-19T03:37:42.683Z,23.13
2022-12-19T03:43:06.514Z,23.33
2022-12-19T03:48:16.765Z,25.80
2022-12-19T03:53:41.909Z,25.07
2022-12-19T03:58:51.985Z,24.10
2022-12-19T04:03:56.069Z,24.43
2022-12-19T04:08:59.768Z,27.13
2022-12-19T04:14:07.399Z,25.13
2022-12-19T04:19:30.122Z,25.77
2022-12-19T04:24:37.353Z,25.02
2022-12-19T04:29:40.061Z,25.35
2022-12-19T04:34:43.173Z,24.40
2022-12-19T04:39:45.497Z,23.50
2022-12-19T04:44:47.583Z,23.95
2022-12-19T04:49:49.669Z,26.02
2022-12-19T04:54:51.815Z,21.83
2022-12-19T04:59:53.880Z,21.98
2022-12-19T05:04:56.252Z,23.38
2022-12-19T05:15:00.250Z,22.50
2022-12-19T05:20:02.392Z,21.62
2022-12-19T05:25:05.134Z,22.92
2022-12-19T05:30:07.878Z,24.93
2022-12-19T05:35:09.941Z,22.45
2022-12-19T05:40:12.974Z,22.83
2022-12-19T05:45:15.047Z,24.20
2022-12-19T05:50:18.341Z,24.40
2022-12-19T05:55:25.860Z,24.00
2022-12-19T06:00:28.015Z,23.20
2022-12-19T06:05:30.696Z,23.48
2022-12-19T06:10:32.841Z,24.50
2022-12-19T06:15:34.912Z,24.77
2022-12-19T06:20:37.057Z,23.55
2022-12-19T06:25:39.503Z,24.40
2022-12-19T06:30:41.600Z,24.80
2022-12-19T06:35:44.120Z,27.67
2022-12-19T06:41:04.667Z,24.15
2022-12-19T06:46:07.328Z,25.10
2022-12-19T06:51:09.476Z,25.55
2022-12-19T06:56:14.002Z,22.48
2022-12-19T07:01:38.416Z,23.05
2022-12-19T07:06:43.452Z,25.20
2022-12-19T07:11:49.539Z,25.10
2022-12-19T07:16:53.793Z,25.95
2022-12-19T07:21:56.569Z,22.45
2022-12-19T07:26:58.933Z,24.40
2022-12-19T07:37:03.251Z,24.10
2022-12-19T07:42:05.372Z,23.10
2022-12-19T07:47:10.987Z,26.95
2022-12-19T07:52:13.099Z,26.07
2022-12-19T07:57:15.223Z,25.45
2022-12-19T08:02:17.418Z,25.83
2022-12-19T08:07:19.601Z,24.87
2022-12-19T08:12:21.706Z,25.33
2022-12-19T08:17:24.074Z,25.35
2022-12-19T08:27:28.278Z,25.25
2022-12-19T08:32:30.442Z,23.87
2022-12-19T08:37:32.779Z,27.90
2022-12-19T08:47:36.973Z,25.67
2022-12-19T08:52:39.068Z,25.10
2022-12-19T08:57:41.545Z,23.90
2022-12-19T09:02:43.856Z,25.70
2022-12-19T09:12:54.410Z,28.07
2022-12-19T09:18:00.127Z,28.40
2022-12-19T09:23:02.203Z,24.45
2022-12-19T09:33:28.091Z,26.15
2022-12-19T09:38:31.638Z,27.87
2022-12-19T09:43:50.610Z,25.20
2022-12-19T09:48:57.321Z,26.40
2022-12-19T09:54:15.210Z,26.60
2022-12-19T09:59:41.597Z,27.70
2022-12-19T10:04:52.129Z,26.30
2022-12-19T10:12:34.537Z,24.57
2022-12-19T10:15:35.890Z,26.30
2022-12-19T10:20:42.984Z,26.53
2022-12-19T10:26:04.615Z,26.77
2022-12-19T10:31:21.346Z,25.17
2022-12-19T10:36:48.929Z,25.90
2022-12-19T10:41:51.121Z,26.92
2022-12-19T10:46:53.427Z,27.20
2022-12-19T10:57:18.297Z,24.23
2022-12-19T11:02:38.578Z,28.38
2022-12-19T11:07:40.965Z,26.83
2022-12-19T11:16:50.381Z,27.40
2022-12-19T11:26:24.817Z,26.93
2022-12-19T11:35:20.607Z,28.30
2022-12-19T11:40:48.930Z,30.77
2022-12-19T11:46:21.693Z,27.80
2022-12-19T11:51:52.739Z,28.73
2022-12-19T11:56:56.615Z,29.93
2022-12-19T12:02:17.459Z,28.90
2022-12-19T12:07:41.549Z,25.60
2022-12-19T12:20:54.205Z,26.37
2022-12-19T12:31:19.170Z,27.40
2022-12-19T12:31:54.113Z,26.20
2022-12-19T12:32:04.207Z,28.58
2022-12-19T12:40:48.251Z,27.97
2022-12-19T12:45:50.428Z,26.20
2022-12-19T12:50:55.367Z,26.58
2022-12-19T12:55:59.352Z,27.33
2022-12-19T13:01:28.781Z,25.17
2022-12-19T13:07:11.133Z,25.75
2022-12-19T13:12:46.387Z,27.20
2022-12-19T13:17:49.357Z,27.50
2022-12-19T13:22:58.254Z,27.60
2022-12-19T13:28:03.183Z,27.60
2022-12-19T13:33:06.292Z,28.05
2022-12-19T13:40:00.875Z,26.95
2022-12-19T13:43:49.726Z,26.10
2022-12-19T13:48:56.532Z,28.90
2022-12-19T13:54:00.034Z,27.10
2022-12-19T13:59:04.628Z,26.90
2022-12-19T14:04:14.866Z,27.35
2022-12-19T14:11:33.286Z,27.90
2022-12-19T14:15:16.031Z,28.45
2022-12-19T14:22:01.514Z,29.70
2022-12-19T14:28:18.708Z,28.40
2022-12-19T14:31:19.285Z,31.40
2022-12-19T14:36:27.633Z,28.05
2022-12-19T14:41:58.968Z,28.10
2022-12-19T14:53:52.087Z,28.35
2022-12-19T14:54:55.283Z,26.47
2022-12-19T14:58:54.748Z,28.70
2022-12-19T15:04:51.396Z,30.77
2022-12-19T15:11:03.349Z,30.00
2022-12-19T15:14:59.170Z,30.50
2022-12-19T15:20:01.974Z,30.87
2022-12-19T15:25:04.382Z,30.02
2022-12-19T15:30:17.604Z,29.55
2022-12-19T15:35:19.726Z,29.50
2022-12-19T15:40:21.919Z,30.37
2022-12-19T15:45:24.589Z,28.42
2022-12-19T15:50:29.474Z,30.60
2022-12-19T15:55:31.597Z,29.57
2022-12-19T16:00:36.366Z,30.17
2022-12-19T16:05:38.796Z,31.77
2022-12-19T16:20:48.769Z,30.40
2022-12-19T16:25:51.748Z,26.17
2022-12-19T16:30:59.391Z,30.47
2022-12-19T16:36:04.708Z,30.63
2022-12-19T16:41:16.199Z,28.73
2022-12-19T16:46:22.038Z,28.70
2022-12-19T16:51:30.305Z,30.00
2022-12-19T16:56:48.179Z,31.63
2022-12-19T17:01:51.271Z,30.90
2022-12-19T17:06:54.025Z,30.93
2022-12-19T17:12:00.047Z,30.03
2022-12-19T17:17:02.349Z,30.43
2022-12-19T17:22:14.606Z,30.40
2022-12-19T17:27:18.758Z,31.95
2022-12-19T17:32:24.228Z,31.27
2022-12-19T17:37:27.308Z,32.17
2022-12-19T17:42:35.313Z,31.50
2022-12-19T17:47:39.762Z,29.93
2022-12-19T17:57:44.513Z,31.40
2022-12-19T18:02:49.171Z,30.10
2022-12-19T18:07:52.382Z,30.60
2022-12-19T18:12:54.900Z,30.90
2022-12-19T18:23:00.410Z,27.03
2022-12-19T18:28:02.625Z,27.90
2022-12-19T18:33:05.809Z,28.42
2022-12-19T18:38:13.224Z,42.95
2022-12-19T18:43:16.809Z,47.03
2022-12-19T18:48:28.396Z,41.60
2022-12-19T18:53:36.194Z,41.83
2022-12-19T18:58:38.749Z,35.40
2022-12-19T19:03:44.662Z,34.03
2022-12-19T19:08:47.245Z,30.20
2022-12-19T19:13:51.362Z,32.17
2022-12-19T19:18:56.043Z,31.00
2022-12-19T19:24:01.472Z,29.80
2022-12-19T19:29:03.983Z,29.30
2022-12-19T19:39:14.002Z,30.60
2022-12-19T19:44:16.257Z,32.03
2022-12-19T19:49:19.741Z,30.83
2022-12-19T19:54:21.837Z,28.30
2022-12-19T19:59:23.902Z,32.85
2022-12-19T20:04:26.186Z,32.42
2022-12-19T20:14:30.517Z,30.47
2022-12-19T20:19:32.605Z,28.38
2022-12-19T20:24:34.693Z,28.67
2022-12-19T20:29:37.449Z,34.50
2022-12-19T20:34:39.528Z,30.40
2022-12-19T20:39:41.713Z,30.85
2022-12-19T20:44:44.130Z,33.08
2022-12-19T20:49:46.220Z,31.62
2022-12-19T20:54:48.322Z,28.87
2022-12-19T20:59:50.549Z,28.27
2022-12-19T21:04:52.809Z,25.88
2022-12-19T21:09:55.131Z,25.58
2022-12-19T21:14:57.326Z,27.58
2022-12-19T21:19:59.487Z,27.85
2022-12-19T21:25:02.017Z,26.12
2022-12-19T21:35:07.937Z,22.95
2022-12-19T21:40:10.742Z,22.33
2022-12-19T21:45:13.641Z,19.77
2022-12-19T21:50:15.946Z,19.35
2022-12-19T21:55:18.216Z,18.48
2022-12-19T22:00:20.459Z,21.62
2022-12-19T22:05:22.659Z,19.75
2022-12-19T22:10:24.810Z,21.17
2022-12-19T22:15:26.881Z,19.75
2022-12-19T22:20:30.004Z,18.20
2022-12-19T22:25:32.473Z,21.70
2022-12-19T22:35:38.760Z,19.67
2022-12-19T22:40:40.936Z,18.85
2022-12-19T22:45:43.144Z,19.40
2022-12-19T22:50:46.973Z,18.67
2022-12-19T22:55:49.569Z,19.10
2022-12-19T23:05:53.691Z,18.55
2022-12-19T23:10:56.303Z,18.62
2022-12-19T23:15:58.406Z,19.75
2022-12-19T23:21:09.433Z,17.70
2022-12-19T23:26:24.747Z,19.65
2022-12-19T23:31:28.061Z,18.80
2022-12-19T23:37:08.915Z,18.75
2022-12-19T23:41:52.251Z,20.45
2022-12-19T23:47:02.345Z,17.42
2022-12-19T23:52:05.410Z,18.37
2022-12-19T23:57:07.494Z,18.45
